createdAt,value
2023-06-12T00:00:42.827Z,95699.00
2023-06-12T00:01:41.870Z,95699.00
2023-06-12T00:02:43.013Z,95699.00
2023-06-12T00:03:43.056Z,95699.00
2023-06-12T00:04:43.029Z,95699.00
2023-06-12T00:05:43.038Z,95701.00
2023-06-12T00:06:45.250Z,95699.00
2023-06-12T00:07:43.069Z,95699.00
2023-06-12T00:08:43.072Z,95701.00
2023-06-12T00:09:43.048Z,95701.00
2023-06-12T00:10:43.035Z,95699.00
2023-06-12T00:11:43.029Z,95697.00
2023-06-12T00:12:43.046Z,95695.00
2023-06-12T00:13:43.080Z,95697.00
2023-06-12T00:14:43.027Z,95693.00
2023-06-12T00:15:42.011Z,95693.00
2023-06-12T00:16:43.040Z,95693.00
2023-06-12T00:17:43.083Z,95693.00
2023-06-12T00:18:43.001Z,95693.00
2023-06-12T00:19:42.984Z,95692.00
2023-06-12T00:20:42.992Z,95690.00
2023-06-12T00:21:42.967Z,95692.00
2023-06-12T00:22:42.953Z,95690.00
2023-06-12T00:23:42.011Z,95690.00
2023-06-12T00:24:43.032Z,95686.00
2023-06-12T00:25:41.933Z,95688.00
2023-06-12T00:26:42.933Z,95688.00
2023-06-12T00:27:41.926Z,95690.00
2023-06-12T00:28:42.910Z,95690.00
2023-06-12T00:29:42.960Z,95690.00
2023-06-12T00:30:42.907Z,95688.00
2023-06-12T00:31:42.969Z,95686.00
2023-06-12T00:32:42.965Z,95686.00
2023-06-12T00:33:42.882Z,95686.00
2023-06-12T00:34:42.880Z,95686.00
2023-06-12T00:35:42.885Z,95686.00
2023-06-12T00:36:42.859Z,95676.00
2023-06-12T00:37:42.877Z,95678.00
2023-06-12T00:38:42.840Z,95674.00
2023-06-12T00:39:42.864Z,95676.00
2023-06-12T00:40:42.846Z,95676.00
2023-06-12T00:41:42.851Z,95674.00
2023-06-12T00:42:42.904Z,95674.00
2023-06-12T00:43:41.931Z,95672.00
2023-06-12T00:44:42.995Z,95674.00
2023-06-12T00:45:43.109Z,95672.00
2023-06-12T00:46:43.050Z,95672.00
2023-06-12T00:47:43.202Z,95670.00
2023-06-12T00:48:43.147Z,95670.00
2023-06-12T00:49:42.196Z,95672.00
2023-06-12T00:50:42.283Z,95674.00
2023-06-12T00:51:43.254Z,95670.00
2023-06-12T00:52:42.304Z,95670.00
2023-06-12T00:53:43.344Z,95674.00
2023-06-12T00:54:42.399Z,95676.00
2023-06-12T00:55:43.424Z,95676.00
2023-06-12T00:56:42.483Z,95676.00
2023-06-12T00:57:43.515Z,95674.00
2023-06-12T00:58:42.569Z,95676.00
2023-06-12T00:59:43.616Z,95674.00
2023-06-12T01:00:43.640Z,95674.00
2023-06-12T01:01:43.881Z,95672.00
2023-06-12T01:02:42.835Z,95672.00
2023-06-12T01:03:43.774Z,95672.00
2023-06-12T01:04:43.807Z,95672.00
2023-06-12T01:05:43.874Z,95672.00
2023-06-12T01:06:43.906Z,95670.00
2023-06-12T01:07:43.942Z,95670.00
2023-06-12T01:08:43.984Z,95668.00
2023-06-12T01:09:43.014Z,95670.00
2023-06-12T01:10:44.069Z,95670.00
2023-06-12T01:11:44.111Z,95670.00
2023-06-12T01:12:44.163Z,95670.00
2023-06-12T01:13:44.211Z,95670.00
2023-06-12T01:14:44.255Z,95672.00
2023-06-12T01:15:44.289Z,95674.00
2023-06-12T01:16:44.367Z,95674.00
2023-06-12T01:17:43.477Z,95674.00
2023-06-12T01:18:44.439Z,95670.00
2023-06-12T01:19:44.495Z,95674.00
2023-06-12T01:20:44.529Z,95674.00
2023-06-12T01:21:43.595Z,95674.00
2023-06-12T01:22:43.642Z,95674.00
2023-06-12T01:23:44.741Z,95672.00
2023-06-12T01:24:44.709Z,95672.00
2023-06-12T01:25:43.749Z,95672.00
2023-06-12T01:26:44.850Z,95672.00
2023-06-12T01:27:44.838Z,95668.00
2023-06-12T01:28:43.908Z,95668.00
2023-06-12T01:29:44.926Z,95668.00
2023-06-12T01:30:44.976Z,95666.00
2023-06-12T01:31:45.060Z,95668.00
2023-06-12T01:32:45.133Z,95668.00
2023-06-12T01:33:45.115Z,95666.00
2023-06-12T01:34:45.159Z,95666.00
2023-06-12T01:35:45.237Z,95664.00
2023-06-12T01:36:45.255Z,95664.00
2023-06-12T01:37:45.373Z,95666.00
2023-06-12T01:38:45.350Z,95666.00
2023-06-12T01:39:44.394Z,95666.00
2023-06-12T01:40:44.452Z,95666.00
2023-06-12T01:41:45.496Z,95666.00
2023-06-12T01:42:45.544Z,95670.00
2023-06-12T01:43:44.579Z,95670.00
2023-06-12T01:44:45.631Z,95670.00
2023-06-12T01:45:45.671Z,95672.00
2023-06-12T01:46:45.774Z,95668.00
2023-06-12T01:47:45.857Z,95668.00
2023-06-12T01:48:45.832Z,95666.00
2023-06-12T01:49:45.858Z,95666.00
2023-06-12T01:50:44.944Z,95662.00
2023-06-12T01:51:44.973Z,95664.00
2023-06-12T01:52:46.005Z,95660.00
2023-06-12T01:53:46.073Z,95660.00
2023-06-12T01:54:45.105Z,95660.00
2023-06-12T01:55:45.166Z,95662.00
2023-06-12T01:56:46.225Z,95660.00
2023-06-12T01:57:45.273Z,95658.00
2023-06-12T01:58:46.322Z,95656.00
2023-06-12T01:59:46.366Z,95660.00
2023-06-12T02:00:45.417Z,95656.00
2023-06-12T02:01:46.558Z,95658.00
2023-06-12T02:02:46.539Z,95660.00
2023-06-12T02:03:46.626Z,95660.00
2023-06-12T02:04:46.648Z,95660.00
2023-06-12T02:05:46.663Z,95664.00
2023-06-12T02:06:46.715Z,95662.00
2023-06-12T02:07:46.771Z,95662.00
2023-06-12T02:08:46.833Z,95666.00
2023-06-12T02:09:46.897Z,95662.00
2023-06-12T02:10:46.938Z,95662.00
2023-06-12T02:11:46.981Z,95666.00
2023-06-12T02:12:47.045Z,95664.00
2023-06-12T02:13:47.088Z,95664.00
2023-06-12T02:14:47.148Z,95666.00
2023-06-12T02:15:46.199Z,95666.00
2023-06-12T02:16:47.290Z,95668.00
2023-06-12T02:17:47.323Z,95670.00
2023-06-12T02:18:46.346Z,95670.00
2023-06-12T02:19:47.402Z,95672.00
2023-06-12T02:20:47.495Z,95668.00
2023-06-12T02:21:47.501Z,95668.00
2023-06-12T02:22:47.572Z,95668.00
2023-06-12T02:23:47.729Z,95668.00
2023-06-12T02:24:46.679Z,95668.00
2023-06-12T02:25:46.728Z,95670.00
2023-06-12T02:26:47.794Z,95672.00
2023-06-12T02:27:47.850Z,95672.00
2023-06-12T02:28:47.893Z,95674.00
2023-06-12T02:29:47.978Z,95676.00
2023-06-12T02:30:48.020Z,95676.00
2023-06-12T02:31:48.213Z,95678.00
2023-06-12T02:32:48.170Z,95676.00
2023-06-12T02:33:48.198Z,95674.00
2023-06-12T02:34:48.254Z,95678.00
2023-06-12T02:35:48.321Z,95676.00
2023-06-12T02:36:48.456Z,95676.00
2023-06-12T02:37:48.429Z,95676.00
2023-06-12T02:38:48.475Z,95678.00
2023-06-12T02:39:47.524Z,95678.00
2023-06-12T02:40:48.587Z,95686.00
2023-06-12T02:41:48.636Z,95686.00
2023-06-12T02:42:48.695Z,95686.00
2023-06-12T02:43:48.779Z,95688.00
2023-06-12T02:44:48.820Z,95688.00
2023-06-12T02:45:47.907Z,95688.00
2023-06-12T02:46:48.953Z,95688.00
2023-06-12T02:47:49.074Z,95678.00
2023-06-12T02:48:48.067Z,95686.00
2023-06-12T02:49:49.124Z,95678.00
2023-06-12T02:50:48.191Z,95686.00
2023-06-12T02:51:48.237Z,95686.00
2023-06-12T02:52:49.331Z,95686.00
2023-06-12T02:53:48.407Z,95686.00
2023-06-12T02:54:48.418Z,95688.00
2023-06-12T02:55:48.485Z,95686.00
2023-06-12T02:56:49.552Z,95686.00
2023-06-12T02:57:49.603Z,95686.00
2023-06-12T02:58:49.661Z,95688.00
2023-06-12T02:59:49.699Z,95686.00
2023-06-12T03:00:49.763Z,95690.00
2023-06-12T03:01:49.865Z,95690.00
2023-06-12T03:02:49.918Z,95690.00
2023-06-12T03:03:48.951Z,95690.00
2023-06-12T03:04:49.991Z,95692.00
2023-06-12T03:05:50.034Z,95695.00
2023-06-12T03:06:50.087Z,95693.00
2023-06-12T03:07:50.146Z,95697.00
2023-06-12T03:08:50.220Z,95697.00
2023-06-12T03:09:50.275Z,95695.00
2023-06-12T03:10:50.317Z,95697.00
2023-06-12T03:11:49.359Z,95701.00
2023-06-12T03:12:49.429Z,95699.00
2023-06-12T03:13:50.562Z,95699.00
2023-06-12T03:14:50.630Z,95699.00
2023-06-12T03:15:50.665Z,95701.00
2023-06-12T03:16:50.665Z,95703.00
2023-06-12T03:17:50.722Z,95703.00
2023-06-12T03:18:49.773Z,95703.00
2023-06-12T03:19:50.815Z,95703.00
2023-06-12T03:20:50.872Z,95705.00
2023-06-12T03:21:50.930Z,95705.00
2023-06-12T03:22:50.999Z,95705.00
2023-06-12T03:23:51.058Z,95707.00
2023-06-12T03:24:51.133Z,95707.00
2023-06-12T03:25:51.184Z,95707.00
2023-06-12T03:26:51.226Z,95705.00
2023-06-12T03:27:51.281Z,95705.00
2023-06-12T03:28:51.351Z,95705.00
2023-06-12T03:29:51.408Z,95703.00
2023-06-12T03:30:51.481Z,95699.00
2023-06-12T03:31:51.585Z,95705.00
2023-06-12T03:32:50.613Z,95703.00
2023-06-12T03:33:51.640Z,95703.00
2023-06-12T03:34:51.696Z,95703.00
2023-06-12T03:35:51.760Z,95705.00
2023-06-12T03:36:51.819Z,95707.00
2023-06-12T03:37:51.886Z,95707.00
2023-06-12T03:38:51.951Z,95709.00
2023-06-12T03:39:52.003Z,95709.00
2023-06-12T03:40:52.088Z,95709.00
2023-06-12T03:41:52.108Z,95707.00
2023-06-12T03:42:52.176Z,95707.00
2023-06-12T03:43:51.241Z,95705.00
2023-06-12T03:44:52.281Z,95707.00
2023-06-12T03:45:51.363Z,95709.00
2023-06-12T03:46:51.451Z,95709.00
2023-06-12T03:47:52.519Z,95711.00
2023-06-12T03:48:52.532Z,95711.00
2023-06-12T03:49:52.602Z,95713.00
2023-06-12T03:50:52.639Z,95711.00
2023-06-12T03:51:52.719Z,95713.00
2023-06-12T03:52:52.775Z,95717.00
2023-06-12T03:53:51.830Z,95713.00
2023-06-12T03:54:52.883Z,95713.00
2023-06-12T03:55:52.975Z,95713.00
2023-06-12T03:56:53.040Z,95713.00
2023-06-12T03:57:52.081Z,95713.00
2023-06-12T03:58:53.158Z,95713.00
2023-06-12T03:59:52.197Z,95715.00
2023-06-12T04:00:52.354Z,95717.00
2023-06-12T04:01:53.317Z,95717.00
2023-06-12T04:02:53.525Z,95717.00
2023-06-12T04:03:53.522Z,95719.00
2023-06-12T04:04:53.523Z,95719.00
2023-06-12T04:05:53.553Z,95717.00
2023-06-12T04:06:53.606Z,95719.00
2023-06-12T04:07:53.668Z,95719.00
2023-06-12T04:08:53.732Z,95719.00
2023-06-12T04:09:53.796Z,95719.00
2023-06-12T04:10:53.849Z,95717.00
2023-06-12T04:11:53.920Z,95721.00
2023-06-12T04:12:54.001Z,95719.00
2023-06-12T04:13:54.035Z,95723.00
2023-06-12T04:14:53.094Z,95721.00
2023-06-12T04:15:54.159Z,95721.00
2023-06-12T04:16:54.263Z,95719.00
2023-06-12T04:17:54.309Z,95717.00
2023-06-12T04:18:54.330Z,95715.00
2023-06-12T04:19:54.415Z,95713.00
2023-06-12T04:20:54.458Z,95715.00
2023-06-12T04:21:53.514Z,95715.00
2023-06-12T04:22:54.586Z,95715.00
2023-06-12T04:23:54.700Z,95711.00
2023-06-12T04:24:54.701Z,95713.00
2023-06-12T04:25:54.778Z,95713.00
2023-06-12T04:26:54.825Z,95713.00
2023-06-12T04:27:53.887Z,95715.00
2023-06-12T04:28:54.975Z,95717.00
2023-06-12T04:29:55.022Z,95715.00
2023-06-12T04:30:55.083Z,95717.00
2023-06-12T04:31:55.215Z,95715.00
2023-06-12T04:32:55.254Z,95715.00
2023-06-12T04:33:55.271Z,95715.00
2023-06-12T04:34:54.336Z,95715.00
2023-06-12T04:35:55.389Z,95717.00
2023-06-12T04:36:55.454Z,95717.00
2023-06-12T04:37:54.519Z,95715.00
2023-06-12T04:38:55.569Z,95715.00
2023-06-12T04:39:55.631Z,95713.00
2023-06-12T04:40:55.707Z,95715.00
2023-06-12T04:41:55.763Z,95717.00
2023-06-12T04:42:54.829Z,95713.00
2023-06-12T04:43:55.885Z,95717.00
2023-06-12T04:44:55.965Z,95717.00
2023-06-12T04:45:58.181Z,95717.00
2023-06-12T04:46:55.996Z,95719.00
2023-06-12T04:47:55.101Z,95717.00
2023-06-12T04:48:55.231Z,95719.00
2023-06-12T04:49:55.992Z,95719.00
2023-06-12T04:50:56.056Z,95717.00
2023-06-12T04:51:54.973Z,95719.00
2023-06-12T04:52:55.982Z,95717.00
2023-06-12T04:53:55.952Z,95717.00
2023-06-12T04:54:54.959Z,95715.00
2023-06-12T04:55:55.949Z,95715.00
2023-06-12T04:56:55.942Z,95713.00
2023-06-12T04:57:55.921Z,95715.00
2023-06-12T04:58:54.949Z,95713.00
2023-06-12T04:59:55.906Z,95715.00
2023-06-12T05:00:54.980Z,95713.00
2023-06-12T05:01:55.906Z,95713.00
2023-06-12T05:02:55.920Z,95713.00
2023-06-12T05:03:55.917Z,95711.00
2023-06-12T05:04:55.873Z,95713.00
2023-06-12T05:05:55.871Z,95713.00
2023-06-12T05:06:54.868Z,95713.00
2023-06-12T05:07:55.874Z,95709.00
2023-06-12T05:08:55.857Z,95711.00
2023-06-12T05:09:55.933Z,95709.00
2023-06-12T05:10:54.965Z,95711.00
2023-06-12T05:11:56.015Z,95707.00
2023-06-12T05:12:56.083Z,95709.00
2023-06-12T05:13:56.150Z,95707.00
2023-06-12T05:14:56.224Z,95707.00
2023-06-12T05:15:56.278Z,95707.00
2023-06-12T05:16:56.409Z,95705.00
2023-06-12T05:17:56.465Z,95707.00
2023-06-12T05:18:56.451Z,95707.00
2023-06-12T05:19:56.512Z,95705.00
2023-06-12T05:20:55.569Z,95707.00
2023-06-12T05:21:56.633Z,95711.00
2023-06-12T05:22:56.737Z,95711.00
2023-06-12T05:23:56.814Z,95709.00
2023-06-12T05:24:56.827Z,95709.00
2023-06-12T05:25:56.884Z,95711.00
2023-06-12T05:26:56.964Z,95709.00
2023-06-12T05:27:57.003Z,95711.00
2023-06-12T05:28:57.105Z,95713.00
2023-06-12T05:29:57.140Z,95715.00
2023-06-12T05:30:57.214Z,95713.00
2023-06-12T05:31:56.248Z,95711.00
2023-06-12T05:32:57.345Z,95713.00
2023-06-12T05:33:56.366Z,95709.00
2023-06-12T05:34:57.418Z,95713.00
2023-06-12T05:35:56.480Z,95713.00
2023-06-12T05:36:56.546Z,95711.00
2023-06-12T05:37:57.602Z,95709.00
2023-06-12T05:38:57.633Z,95709.00
2023-06-12T05:39:57.700Z,95711.00
2023-06-12T05:40:57.772Z,95711.00
2023-06-12T05:41:57.836Z,95709.00
2023-06-12T05:42:56.885Z,95709.00
2023-06-12T05:43:57.963Z,95709.00
2023-06-12T05:44:58.016Z,95707.00
2023-06-12T05:45:58.104Z,95707.00
2023-06-12T05:46:58.116Z,95705.00
2023-06-12T05:47:57.212Z,95703.00
2023-06-12T05:48:58.284Z,95703.00
2023-06-12T05:49:58.310Z,95699.00
2023-06-12T05:50:58.367Z,95699.00
2023-06-12T05:51:58.469Z,95697.00
2023-06-12T05:52:58.484Z,95697.00
2023-06-12T05:53:58.577Z,95697.00
2023-06-12T05:54:58.587Z,95697.00
2023-06-12T05:55:57.651Z,95693.00
2023-06-12T05:56:58.707Z,95699.00
2023-06-12T05:57:58.772Z,95697.00
2023-06-12T05:58:58.820Z,95697.00
2023-06-12T05:59:57.890Z,95697.00
2023-06-12T06:00:59.038Z,95697.00
2023-06-12T06:01:59.047Z,95699.00
2023-06-12T06:02:59.178Z,95697.00
2023-06-12T06:03:59.263Z,95695.00
2023-06-12T06:04:58.321Z,95699.00
2023-06-12T06:05:59.249Z,95695.00
2023-06-12T06:07:04.501Z,95697.00
2023-06-12T06:07:59.320Z,95695.00
2023-06-12T06:08:58.335Z,95697.00
2023-06-12T06:09:59.306Z,95697.00
2023-06-12T06:10:59.303Z,95699.00
2023-06-12T06:11:59.342Z,95701.00
2023-06-12T06:12:59.290Z,95701.00
2023-06-12T06:13:59.317Z,95705.00
2023-06-12T06:14:59.293Z,95703.00
2023-06-12T06:15:59.277Z,95705.00
2023-06-12T06:16:59.318Z,95703.00
2023-06-12T06:17:59.307Z,95703.00
2023-06-12T06:18:59.253Z,95703.00
2023-06-12T06:19:59.286Z,95703.00
2023-06-12T06:20:59.276Z,95705.00
2023-06-12T06:21:59.232Z,95709.00
2023-06-12T06:22:59.248Z,95707.00
2023-06-12T06:23:59.241Z,95709.00
2023-06-12T06:24:59.224Z,95707.00
2023-06-12T06:25:59.222Z,95705.00
2023-06-12T06:26:59.199Z,95707.00
2023-06-12T06:27:59.213Z,95705.00
2023-06-12T06:29:12.256Z,95707.00
2023-06-12T06:29:59.180Z,95707.00
2023-06-12T06:30:59.174Z,95705.00
2023-06-12T06:31:59.299Z,95705.00
2023-06-12T06:32:58.247Z,95703.00
2023-06-12T06:33:59.170Z,95705.00
2023-06-12T06:34:59.160Z,95705.00
2023-06-12T06:35:58.146Z,95701.00
2023-06-12T06:36:59.157Z,95705.00
2023-06-12T06:37:59.133Z,95703.00
2023-06-12T06:38:59.138Z,95705.00
2023-06-12T06:39:59.119Z,95703.00
2023-06-12T06:40:59.112Z,95701.00
2023-06-12T06:41:58.100Z,95699.00
2023-06-12T06:42:59.103Z,95705.00
2023-06-12T06:43:59.077Z,95703.00
2023-06-12T06:44:58.078Z,95703.00
2023-06-12T06:45:58.145Z,95701.00
2023-06-12T06:46:59.074Z,95701.00
2023-06-12T06:47:59.115Z,95699.00
2023-06-12T06:48:59.055Z,95701.00
2023-06-12T06:49:59.088Z,95703.00
2023-06-12T06:50:59.031Z,95703.00
2023-06-12T06:51:59.045Z,95699.00
2023-06-12T06:52:59.075Z,95695.00
2023-06-12T06:53:59.022Z,95697.00
2023-06-12T06:54:59.042Z,95699.00
2023-06-12T06:55:59.009Z,95697.00
2023-06-12T06:56:59.048Z,95699.00
2023-06-12T06:57:58.996Z,95699.00
2023-06-12T06:58:58.993Z,95693.00
2023-06-12T06:59:57.991Z,95699.00
2023-06-12T07:00:57.992Z,95699.00
2023-06-12T07:01:59.046Z,95699.00
2023-06-12T07:02:58.052Z,95701.00
2023-06-12T07:03:59.007Z,95701.00
2023-06-12T07:04:59.032Z,95699.00
2023-06-12T07:05:59.053Z,95697.00
2023-06-12T07:06:59.104Z,95697.00
2023-06-12T07:08:01.925Z,95697.00
2023-06-12T07:08:59.186Z,95697.00
2023-06-12T07:09:59.110Z,95695.00
2023-06-12T07:10:58.137Z,95695.00
2023-06-12T07:11:59.132Z,95692.00
2023-06-12T07:12:58.163Z,95692.00
2023-06-12T07:13:58.106Z,95690.00
2023-06-12T07:14:59.095Z,95690.00
2023-06-12T07:16:01.786Z,95688.00
2023-06-12T07:16:58.085Z,95690.00
2023-06-12T07:17:59.130Z,95678.00
2023-06-12T07:18:59.079Z,95676.00
2023-06-12T07:19:59.071Z,95676.00
2023-06-12T07:20:58.054Z,95674.00
2023-06-12T07:21:59.039Z,95672.00
2023-06-12T07:22:59.032Z,95670.00
2023-06-12T07:23:59.130Z,95670.00
2023-06-12T07:24:59.265Z,95666.00
2023-06-12T07:25:58.573Z,95668.00
2023-06-12T07:26:59.006Z,95664.00
2023-06-12T07:27:59.019Z,95664.00
2023-06-12T07:29:00.956Z,95662.00
2023-06-12T07:29:57.993Z,95662.00
2023-06-12T07:30:58.049Z,95662.00
2023-06-12T07:31:59.002Z,95660.00
2023-06-12T07:32:59.034Z,95658.00
2023-06-12T07:33:59.001Z,95658.00
2023-06-12T07:34:57.956Z,95656.00
2023-06-12T07:35:58.955Z,95656.00
2023-06-12T07:36:58.954Z,95656.00
2023-06-12T07:37:57.959Z,95652.00
2023-06-12T07:38:58.999Z,95654.00
2023-06-12T07:39:59.003Z,95654.00
2023-06-12T07:40:58.060Z,95654.00
2023-06-12T07:41:57.929Z,95650.00
2023-06-12T07:42:58.916Z,95652.00
2023-06-12T07:43:57.906Z,95650.00
2023-06-12T07:44:58.906Z,95648.00
2023-06-12T07:45:57.892Z,95642.00
2023-06-12T07:46:58.901Z,95646.00
2023-06-12T07:47:59.126Z,95646.00
2023-06-12T07:48:58.892Z,95642.00
2023-06-12T07:49:58.860Z,95644.00
2023-06-12T07:50:58.866Z,95642.00
2023-06-12T07:51:59.086Z,95642.00
2023-06-12T07:52:58.863Z,95642.00
2023-06-12T07:53:58.831Z,95642.00
2023-06-12T07:54:57.833Z,95642.00
2023-06-12T07:55:58.843Z,95639.00
2023-06-12T07:56:58.836Z,95637.00
2023-06-12T07:57:57.826Z,95637.00
2023-06-12T07:58:58.808Z,95639.00
2023-06-12T07:59:57.805Z,95639.00
2023-06-12T08:00:58.796Z,95639.00
2023-06-12T08:01:58.851Z,95637.00
2023-06-12T08:02:58.896Z,95637.00
2023-06-12T08:03:58.792Z,95642.00
2023-06-12T08:04:58.799Z,95642.00
2023-06-12T08:05:59.576Z,95640.00
2023-06-12T08:06:58.809Z,95639.00
2023-06-12T08:07:58.754Z,95639.00
2023-06-12T08:08:58.750Z,95637.00
2023-06-12T08:09:57.737Z,95637.00
2023-06-12T08:10:58.759Z,95637.00
2023-06-12T08:11:57.732Z,95635.00
2023-06-12T08:12:58.750Z,95635.00
2023-06-12T08:13:58.717Z,95635.00
2023-06-12T08:14:58.707Z,95635.00
2023-06-12T08:15:57.695Z,95633.00
2023-06-12T08:16:58.775Z,95631.00
2023-06-12T08:17:57.722Z,95631.00
2023-06-12T08:19:00.162Z,95631.00
2023-06-12T08:19:58.690Z,95627.00
2023-06-12T08:20:58.667Z,95623.00
2023-06-12T08:21:58.669Z,95621.00
2023-06-12T08:22:58.665Z,95621.00
2023-06-12T08:23:58.729Z,95627.00
2023-06-12T08:24:57.656Z,95629.00
2023-06-12T08:25:58.641Z,95623.00
2023-06-12T08:26:58.647Z,95631.00
2023-06-12T08:27:58.627Z,95623.00
2023-06-12T08:28:58.681Z,95625.00
2023-06-12T08:29:58.615Z,95625.00
2023-06-12T08:30:58.655Z,95623.00
2023-06-12T08:31:58.621Z,95623.00
2023-06-12T08:32:57.598Z,95621.00
2023-06-12T08:33:58.586Z,95617.00
2023-06-12T08:34:58.590Z,95615.00
2023-06-12T08:35:58.571Z,95617.00
2023-06-12T08:36:57.586Z,95617.00
2023-06-12T08:37:58.554Z,95617.00
2023-06-12T08:38:57.555Z,95615.00
2023-06-12T08:39:58.567Z,95615.00
2023-06-12T08:40:57.606Z,95613.00
2023-06-12T08:41:58.132Z,95613.00
2023-06-12T08:42:57.654Z,95611.00
2023-06-12T08:43:58.757Z,95611.00
2023-06-12T08:45:11.121Z,95609.00
2023-06-12T08:45:58.765Z,95605.00
2023-06-12T08:46:57.727Z,95603.00
2023-06-12T08:47:58.743Z,95607.00
2023-06-12T08:48:58.686Z,95607.00
2023-06-12T08:49:58.680Z,95605.00
2023-06-12T08:50:58.675Z,95607.00
2023-06-12T08:51:57.674Z,95607.00
2023-06-12T08:52:58.672Z,95607.00
2023-06-12T08:53:58.694Z,95609.00
2023-06-12T08:54:58.641Z,95609.00
2023-06-12T08:55:58.649Z,95613.00
2023-06-12T08:56:59.111Z,95613.00
2023-06-12T08:57:57.619Z,95613.00
2023-06-12T08:58:57.623Z,95613.00
2023-06-12T08:59:57.603Z,95611.00
2023-06-12T09:00:57.660Z,95611.00
2023-06-12T09:02:13.022Z,95611.00
2023-06-12T09:02:58.752Z,95611.00
2023-06-12T09:03:58.680Z,95611.00
2023-06-12T09:04:58.717Z,95611.00
2023-06-12T09:05:58.670Z,95607.00
2023-06-12T09:06:57.572Z,95607.00
2023-06-12T09:07:58.563Z,95607.00
2023-06-12T09:08:58.547Z,95607.00
2023-06-12T09:10:08.600Z,95609.00
2023-06-12T09:10:58.538Z,95607.00
2023-06-12T09:11:58.535Z,95609.00
2023-06-12T09:12:58.530Z,95609.00
2023-06-12T09:13:58.521Z,95607.00
2023-06-12T09:14:58.531Z,95601.00
2023-06-12T09:15:58.519Z,95601.00
2023-06-12T09:16:57.525Z,95599.00
2023-06-12T09:17:58.623Z,95599.00
2023-06-12T09:18:58.546Z,95601.00
2023-06-12T09:19:58.500Z,95601.00
2023-06-12T09:21:00.127Z,95595.00
2023-06-12T09:21:57.692Z,95595.00
2023-06-12T09:22:57.724Z,95597.00
2023-06-12T09:23:58.746Z,95593.00
2023-06-12T09:24:58.790Z,95595.00
2023-06-12T09:26:14.665Z,95593.00
2023-06-12T09:26:58.824Z,95593.00
2023-06-12T09:27:58.803Z,95592.00
2023-06-12T09:28:58.788Z,95592.00
2023-06-12T09:29:58.798Z,95588.00
2023-06-12T09:30:58.512Z,95592.00
2023-06-12T09:31:57.823Z,95588.00
2023-06-12T09:32:58.830Z,95590.00
2023-06-12T09:33:58.758Z,95588.00
2023-06-12T09:34:58.747Z,95590.00
2023-06-12T09:35:58.742Z,95590.00
2023-06-12T09:36:58.736Z,95590.00
2023-06-12T09:37:58.728Z,95588.00
2023-06-12T09:38:58.722Z,95586.00
2023-06-12T09:39:58.714Z,95588.00
2023-06-12T09:40:57.724Z,95588.00
2023-06-12T09:41:57.715Z,95584.00
2023-06-12T09:42:58.701Z,95584.00
2023-06-12T09:43:58.692Z,95584.00
2023-06-12T09:44:58.679Z,95580.00
2023-06-12T09:45:58.979Z,95580.00
2023-06-12T09:46:58.685Z,95582.00
2023-06-12T09:47:59.174Z,95580.00
2023-06-12T09:48:57.696Z,95582.00
2023-06-12T09:49:57.649Z,95576.00
2023-06-12T09:50:58.652Z,95576.00
2023-06-12T09:51:57.649Z,95576.00
2023-06-12T09:52:59.144Z,95576.00
2023-06-12T09:53:58.635Z,95578.00
2023-06-12T09:54:57.616Z,95574.00
2023-06-12T09:55:58.621Z,95574.00
2023-06-12T09:56:58.613Z,95568.00
2023-06-12T09:57:58.622Z,95572.00
2023-06-12T09:58:57.607Z,95572.00
2023-06-12T09:59:58.597Z,95570.00
2023-06-12T10:00:58.577Z,95576.00
2023-06-12T10:01:58.613Z,95572.00
2023-06-12T10:02:57.625Z,95570.00
2023-06-12T10:03:58.695Z,95574.00
2023-06-12T10:04:58.591Z,95572.00
2023-06-12T10:05:58.576Z,95572.00
2023-06-12T10:06:58.602Z,95568.00
2023-06-12T10:07:57.631Z,95564.00
2023-06-12T10:08:57.551Z,95566.00
2023-06-12T10:09:58.581Z,95564.00
2023-06-12T10:10:57.602Z,95558.00
2023-06-12T10:11:57.606Z,95564.00
2023-06-12T10:12:58.630Z,95564.00
2023-06-12T10:13:57.645Z,95562.00
2023-06-12T10:14:58.727Z,95562.00
2023-06-12T10:15:58.703Z,95560.00
2023-06-12T10:16:58.700Z,95564.00
2023-06-12T10:17:57.738Z,95562.00
2023-06-12T10:18:58.737Z,95558.00
2023-06-12T10:19:58.737Z,95556.00
2023-06-12T10:20:58.790Z,95556.00
2023-06-12T10:21:58.760Z,95554.00
2023-06-12T10:22:58.784Z,95558.00
2023-06-12T10:23:58.827Z,95556.00
2023-06-12T10:24:58.791Z,95552.00
2023-06-12T10:25:57.794Z,95556.00
2023-06-12T10:26:58.799Z,95552.00
2023-06-12T10:27:58.827Z,95552.00
2023-06-12T10:28:58.834Z,95550.00
2023-06-12T10:29:58.846Z,95545.00
2023-06-12T10:30:57.846Z,95548.00
2023-06-12T10:31:57.906Z,95548.00
2023-06-12T10:32:58.955Z,95550.00
2023-06-12T10:33:57.968Z,95546.00
2023-06-12T10:34:59.012Z,95546.00
2023-06-12T10:35:59.015Z,95545.00
2023-06-12T10:36:58.067Z,95545.00
2023-06-12T10:37:59.057Z,95543.00
2023-06-12T10:38:59.058Z,95539.00
2023-06-12T10:39:59.062Z,95546.00
2023-06-12T10:40:59.094Z,95543.00
2023-06-12T10:41:58.136Z,95537.00
2023-06-12T10:42:59.245Z,95543.00
2023-06-12T10:44:00.744Z,95539.00
2023-06-12T10:44:58.068Z,95539.00
2023-06-12T10:45:58.108Z,95537.00
2023-06-12T10:46:59.083Z,95537.00
2023-06-12T10:47:59.070Z,95535.00
2023-06-12T10:48:58.037Z,95539.00
2023-06-12T10:49:58.035Z,95541.00
2023-06-12T10:50:59.024Z,95545.00
2023-06-12T10:51:59.017Z,95537.00
2023-06-12T10:52:59.030Z,95539.00
2023-06-12T10:53:59.007Z,95531.00
2023-06-12T10:54:59.010Z,95531.00
2023-06-12T10:55:58.983Z,95529.00
2023-06-12T10:56:59.034Z,95535.00
2023-06-12T10:57:58.999Z,95529.00
2023-06-12T10:58:58.016Z,95527.00
2023-06-12T10:59:58.047Z,95527.00
2023-06-12T11:00:59.027Z,95527.00
2023-06-12T11:02:00.765Z,95521.00
2023-06-12T11:02:58.016Z,95525.00
2023-06-12T11:03:59.135Z,95521.00
2023-06-12T11:04:58.002Z,95521.00
2023-06-12T11:05:58.019Z,95523.00
2023-06-12T11:06:58.930Z,95523.00
2023-06-12T11:07:57.932Z,95517.00
2023-06-12T11:08:59.070Z,95513.00
2023-06-12T11:09:58.913Z,95511.00
2023-06-12T11:10:58.882Z,95517.00
2023-06-12T11:12:01.922Z,95515.00
2023-06-12T11:12:58.884Z,95517.00
2023-06-12T11:13:58.881Z,95513.00
2023-06-12T11:15:00.711Z,95503.00
2023-06-12T11:15:58.905Z,95501.00
2023-06-12T11:16:58.894Z,95501.00
2023-06-12T11:17:58.900Z,95498.00
2023-06-12T11:18:58.848Z,95498.00
2023-06-12T11:19:57.852Z,95494.00
2023-06-12T11:20:58.821Z,95492.00
2023-06-12T11:21:58.867Z,95496.00
2023-06-12T11:22:58.805Z,95492.00
2023-06-12T11:23:58.881Z,95496.00
2023-06-12T11:24:58.884Z,95494.00
2023-06-12T11:25:58.816Z,95501.00
2023-06-12T11:26:58.778Z,95498.00
2023-06-12T11:27:58.813Z,95488.00
2023-06-12T11:28:58.768Z,95486.00
2023-06-12T11:30:05.404Z,95488.00
2023-06-12T11:31:10.355Z,95490.00
2023-06-12T11:31:58.756Z,95484.00
2023-06-12T11:32:58.939Z,95484.00
2023-06-12T11:33:58.787Z,95482.00
2023-06-12T11:34:57.740Z,95484.00
2023-06-12T11:35:58.725Z,95478.00
2023-06-12T11:36:59.678Z,95476.00
2023-06-12T11:39:57.699Z,95484.00
2023-06-12T11:40:57.731Z,95480.00
2023-06-12T11:41:58.683Z,95478.00
2023-06-12T11:42:57.702Z,95478.00
2023-06-12T11:43:58.681Z,95474.00
2023-06-12T11:44:58.674Z,95482.00
2023-06-12T11:45:58.660Z,95482.00
2023-06-12T11:49:57.692Z,95486.00